Time;durP1;ratioP1;P1;durP2;ratioP2;P2;SDS_P1;SDS_P2;PMS_P1;PMS_P2;Temp;Humidity;BMP_temperature;BMP_pressure;BME280_temperature;BME280_humidity;BME280_pressure;Samples;Min_cycle;Max_cycle;Signal;HPM_P1;HPM_P2
2021/05/02 00:01:02;;;;;;;21.73;19.40;;;10.30;99.90;;;;;;5072208;28;20231;-61
2021/05/02 00:03:29;;;;;;;24.07;18.87;;;10.30;99.90;;;;;;5072793;28;20215;-61
2021/05/02 00:05:55;;;;;;;21.70;18.77;;;10.30;99.90;;;;;;5075530;28;20216;-61
2021/05/02 00:08:22;;;;;;;20.97;18.67;;;10.30;99.90;;;;;;5075017;28;20730;-61
2021/05/02 00:10:48;;;;;;;22.03;18.87;;;10.20;99.90;;;;;;5075263;28;20224;-60
2021/05/02 00:13:14;;;;;;;23.10;19.13;;;10.20;99.90;;;;;;5074726;28;20209;-62
2021/05/02 00:15:40;;;;;;;20.50;17.77;;;10.30;99.90;;;;;;5074821;28;20208;-61
2021/05/02 00:18:07;;;;;;;22.97;18.17;;;10.30;99.90;;;;;;5075941;28;20320;-61
2021/05/02 00:20:34;;;;;;;19.80;16.53;;;10.30;99.90;;;;;;5075504;28;20237;-60
2021/05/02 00:23:03;;;;;;;20.70;18.10;;;10.20;99.90;;;;;;5075540;28;20209;-61
2021/05/02 00:25:31;;;;;;;21.37;18.03;;;10.20;99.90;;;;;;5075684;28;20691;-61
2021/05/02 00:27:58;;;;;;;22.10;18.27;;;10.20;99.90;;;;;;5075036;28;20228;-61
2021/05/02 00:30:25;;;;;;;21.87;18.23;;;10.30;99.90;;;;;;5075739;28;20286;-62
2021/05/02 00:32:54;;;;;;;23.40;19.37;;;10.30;99.90;;;;;;5074729;28;20205;-61
2021/05/02 00:35:22;;;;;;;24.23;19.73;;;10.30;99.90;;;;;;5074947;28;20212;-62
2021/05/02 00:37:49;;;;;;;28.77;21.47;;;10.20;99.90;;;;;;5074298;28;20254;-61
2021/05/02 00:40:18;;;;;;;25.00;20.57;;;10.30;99.90;;;;;;5074008;28;20653;-62
2021/05/02 00:42:48;;;;;;;22.30;19.53;;;10.30;99.90;;;;;;5074106;28;20595;-62
2021/05/02 00:45:23;;;;;;;21.33;19.03;;;10.30;99.90;;;;;;5074352;28;20412;-61
2021/05/02 00:47:54;;;;;;;22.60;19.50;;;10.30;99.90;;;;;;5073919;28;20224;-60
2021/05/02 00:50:26;;;;;;;21.37;18.73;;;10.20;99.90;;;;;;5073878;28;20229;-62
2021/05/02 00:53:13;;;;;;;24.53;19.57;;;10.30;99.90;;;;;;5074041;28;20204;-62
2021/05/02 00:55:46;;;;;;;20.50;18.30;;;10.20;99.90;;;;;;5074021;28;20254;-61
2021/05/02 00:58:25;;;;;;;23.27;19.70;;;10.20;99.90;;;;;;5074844;28;20185;-61
2021/05/02 01:00:56;;;;;;;22.10;18.43;;;10.20;99.90;;;;;;5073817;28;20301;-62
2021/05/02 01:03:24;;;;;;;18.00;15.40;;;10.10;99.90;;;;;;5073819;28;20732;-62
2021/05/02 01:05:54;;;;;;;18.73;16.73;;;9.90;99.90;;;;;;5073948;28;20790;-61
2021/05/02 01:08:22;;;;;;;19.30;16.93;;;9.90;99.90;;;;;;5073545;28;20229;-61
2021/05/02 01:10:49;;;;;;;19.37;16.57;;;10.00;99.90;;;;;;5073356;28;20731;-61
2021/05/02 01:13:19;;;;;;;17.50;15.63;;;9.90;99.90;;;;;;5073486;28;20278;-62
2021/05/02 01:15:49;;;;;;;17.53;15.63;;;10.00;99.90;;;;;;5073501;28;20204;-62
2021/05/02 01:18:18;;;;;;;17.10;14.20;;;9.80;99.90;;;;;;5074913;28;20208;-62
2021/05/02 01:20:45;;;;;;;17.03;15.17;;;9.70;99.90;;;;;;5075492;28;20240;-61
2021/05/02 01:23:23;;;;;;;18.70;15.40;;;9.70;99.90;;;;;;5075164;28;20209;-61
2021/05/02 01:25:53;;;;;;;17.67;15.77;;;9.60;99.90;;;;;;5075166;28;20209;-62
2021/05/02 01:28:20;;;;;;;21.47;17.27;;;9.60;99.90;;;;;;5075071;28;20256;-61
2021/05/02 01:30:47;;;;;;;19.73;16.50;;;9.60;99.90;;;;;;5075006;28;20311;-62
2021/05/02 01:33:13;;;;;;;21.13;17.73;;;9.60;99.90;;;;;;5075423;28;20216;-62
2021/05/02 01:35:40;;;;;;;19.87;17.73;;;9.70;99.90;;;;;;5075047;28;20205;-61
2021/05/02 01:38:06;;;;;;;21.27;17.63;;;9.60;99.90;;;;;;5075332;28;20201;-62
2021/05/02 01:40:34;;;;;;;20.00;17.67;;;9.70;99.90;;;;;;5075154;28;20221;-61
2021/05/02 01:43:01;;;;;;;20.30;17.97;;;9.60;99.90;;;;;;5075336;28;20213;-62
2021/05/02 01:45:27;;;;;;;20.93;17.13;;;9.60;99.90;;;;;;5076048;28;20204;-61
2021/05/02 01:47:59;;;;;;;20.90;16.43;;;9.60;99.90;;;;;;5075267;28;20508;-62
2021/05/02 01:50:27;;;;;;;21.30;18.40;;;9.50;99.90;;;;;;5075059;28;20282;-62
2021/05/02 01:52:54;;;;;;;20.80;17.87;;;9.50;99.90;;;;;;5074947;28;20220;-61
2021/05/02 01:55:21;;;;;;;19.53;17.43;;;9.50;99.90;;;;;;5075352;28;20200;-62
2021/05/02 01:57:51;;;;;;;22.30;19.20;;;9.60;99.90;;;;;;5075556;28;20197;-62
2021/05/02 02:00:30;;;;;;;22.17;18.70;;;9.50;99.90;;;;;;5074907;28;20291;-61
2021/05/02 02:03:02;;;;;;;21.60;17.53;;;9.50;99.90;;;;;;5074882;28;20211;-62
2021/05/02 02:05:30;;;;;;;24.90;20.63;;;9.40;99.90;;;;;;5074756;28;20185;-62
2021/05/02 02:07:57;;;;;;;23.10;19.23;;;9.30;99.90;;;;;;5074710;28;20703;-62
2021/05/02 02:10:25;;;;;;;24.17;21.40;;;9.40;99.90;;;;;;5074231;28;20236;-61
2021/05/02 02:12:52;;;;;;;25.93;20.47;;;9.40;99.90;;;;;;5074239;28;20251;-61
2021/05/02 02:15:19;;;;;;;24.77;20.93;;;9.50;99.90;;;;;;5074851;28;20208;-62
2021/05/02 02:17:46;;;;;;;24.60;21.90;;;9.40;99.90;;;;;;5074944;28;20201;-62
2021/05/02 02:20:14;;;;;;;27.13;22.47;;;9.40;99.90;;;;;;5073946;28;20243;-62
2021/05/02 02:22:41;;;;;;;26.37;21.20;;;9.50;99.90;;;;;;5075213;28;20212;-61
2021/05/02 02:25:09;;;;;;;25.30;22.57;;;9.50;99.90;;;;;;5074854;28;20209;-62
2021/05/02 02:27:36;;;;;;;25.63;22.30;;;9.60;99.90;;;;;;5075140;28;20278;-61
2021/05/02 02:30:07;;;;;;;29.73;24.17;;;9.60;99.90;;;;;;5074136;28;20225;-62
2021/05/02 02:32:34;;;;;;;29.03;23.17;;;9.70;99.90;;;;;;5074243;28;20201;-62
2021/05/02 02:35:04;;;;;;;30.87;24.47;;;9.70;99.90;;;;;;5073967;28;20205;-61
2021/05/02 02:37:31;;;;;;;31.87;24.87;;;9.80;99.90;;;;;;5074315;28;20200;-62
2021/05/02 02:39:59;;;;;;;32.40;24.93;;;9.80;99.90;;;;;;5074105;28;20224;-62
2021/05/02 02:42:26;;;;;;;29.07;24.77;;;9.80;99.90;;;;;;5074898;28;20213;-61
2021/05/02 02:44:55;;;;;;;28.33;23.63;;;9.90;99.90;;;;;;5074102;28;20211;-62
2021/05/02 02:47:25;;;;;;;30.47;23.70;;;9.90;99.90;;;;;;5074156;28;20228;-61
2021/05/02 02:49:57;;;;;;;30.07;23.30;;;9.90;99.90;;;;;;5074624;28;20256;-61
2021/05/02 02:52:26;;;;;;;31.03;24.43;;;9.90;99.90;;;;;;5074146;28;20590;-62
2021/05/02 02:55:02;;;;;;;28.10;24.00;;;10.00;99.90;;;;;;5073945;28;20212;-61
2021/05/02 02:57:31;;;;;;;29.57;23.50;;;10.00;99.90;;;;;;5074016;28;20185;-62
2021/05/02 02:59:58;;;;;;;28.50;23.53;;;10.00;99.90;;;;;;5072640;28;20233;-61
2021/05/02 03:02:27;;;;;;;26.63;22.87;;;10.10;99.90;;;;;;5073713;28;20642;-61
2021/05/02 03:04:54;;;;;;;29.63;25.13;;;10.00;99.90;;;;;;5073259;28;20204;-62
2021/05/02 03:07:23;;;;;;;30.67;25.03;;;10.00;99.90;;;;;;5073856;28;20234;-62
2021/05/02 03:09:51;;;;;;;32.13;25.50;;;9.90;99.90;;;;;;5073097;28;20225;-62
2021/05/02 03:12:19;;;;;;;32.97;25.83;;;9.90;99.90;;;;;;5072971;28;20216;-62
2021/05/02 03:14:48;;;;;;;28.13;24.90;;;9.80;99.90;;;;;;5072764;28;20215;-62
2021/05/02 03:17:18;;;;;;;27.90;24.20;;;9.80;99.90;;;;;;5072978;28;20204;-61
2021/05/02 03:19:49;;;;;;;31.03;26.07;;;9.80;99.90;;;;;;5072870;28;20228;-63
2021/05/02 03:22:25;;;;;;;30.77;25.47;;;9.80;99.90;;;;;;5071931;28;20215;-62
2021/05/02 03:24:56;;;;;;;36.27;29.20;;;9.70;99.90;;;;;;5072116;28;20664;-62
2021/05/02 03:27:26;;;;;;;32.80;26.47;;;9.70;99.90;;;;;;5071855;28;20235;-62
2021/05/02 03:29:53;;;;;;;31.33;25.60;;;9.70;99.90;;;;;;5071975;28;20225;-62
2021/05/02 03:32:24;;;;;;;31.87;26.10;;;9.70;99.90;;;;;;5072064;28;20700;-62
2021/05/02 03:34:55;;;;;;;31.80;27.03;;;9.80;99.90;;;;;;5071478;28;20236;-62
2021/05/02 03:37:25;;;;;;;32.57;27.37;;;9.70;99.90;;;;;;5071656;28;20218;-62
2021/05/02 03:39:52;;;;;;;31.00;27.00;;;9.80;99.90;;;;;;5074896;28;20601;-62
2021/05/02 03:42:19;;;;;;;32.57;26.10;;;9.80;99.90;;;;;;5075660;28;20208;-62
2021/05/02 03:44:45;;;;;;;29.67;25.67;;;9.80;99.90;;;;;;5075497;28;20217;-62
2021/05/02 03:47:12;;;;;;;34.50;28.97;;;9.80;99.90;;;;;;5075592;28;20209;-62
2021/05/02 03:49:39;;;;;;;31.97;26.53;;;9.80;99.90;;;;;;5078411;28;20596;-63
2021/05/02 03:52:06;;;;;;;32.63;26.67;;;9.70;99.90;;;;;;5079955;28;20209;-63
2021/05/02 03:54:33;;;;;;;35.20;26.63;;;9.80;99.90;;;;;;5078616;28;20201;-62
2021/05/02 03:56:59;;;;;;;30.20;25.67;;;9.80;99.90;;;;;;5077319;28;20201;-62
2021/05/02 03:59:26;;;;;;;28.57;24.90;;;9.80;99.90;;;;;;5075745;28;20225;-62
2021/05/02 04:01:55;;;;;;;30.43;25.63;;;9.80;99.90;;;;;;5075227;28;20232;-62
2021/05/02 04:04:23;;;;;;;30.03;26.23;;;9.80;99.90;;;;;;5074848;28;20201;-62
2021/05/02 04:06:50;;;;;;;29.43;25.50;;;9.80;99.90;;;;;;5074768;28;20209;-63
2021/05/02 04:09:18;;;;;;;30.80;25.97;;;9.80;99.90;;;;;;5075262;28;20232;-62
2021/05/02 04:11:45;;;;;;;30.87;25.60;;;9.90;99.90;;;;;;5075415;28;20204;-62
2021/05/02 04:14:13;;;;;;;31.50;27.07;;;9.80;99.90;;;;;;5074992;28;20209;-62
2021/05/02 04:16:40;;;;;;;31.33;25.37;;;9.90;99.90;;;;;;5074677;28;20204;-62
2021/05/02 04:19:08;;;;;;;29.20;26.00;;;9.90;99.90;;;;;;5074410;28;20247;-62
2021/05/02 04:21:36;;;;;;;29.40;25.83;;;9.90;99.90;;;;;;5074623;28;20205;-63
2021/05/02 04:24:03;;;;;;;31.20;25.30;;;9.90;99.90;;;;;;5074544;28;20213;-62
2021/05/02 04:26:30;;;;;;;30.47;25.57;;;10.00;99.90;;;;;;5074305;28;20691;-62
2021/05/02 04:28:56;;;;;;;29.53;25.73;;;10.00;99.90;;;;;;5074300;28;20224;-63
2021/05/02 04:31:22;;;;;;;28.77;24.70;;;10.00;99.90;;;;;;5074053;28;20225;-62
2021/05/02 04:33:49;;;;;;;28.30;25.13;;;10.00;99.90;;;;;;5073985;28;20204;-63
2021/05/02 04:36:15;;;;;;;29.93;25.60;;;10.00;99.90;;;;;;5074573;28;20226;-63
2021/05/02 04:38:41;;;;;;;30.43;25.23;;;9.90;99.90;;;;;;5074547;28;20578;-62
2021/05/02 04:41:08;;;;;;;31.30;25.93;;;10.00;99.90;;;;;;5074181;28;20247;-64
2021/05/02 04:43:35;;;;;;;32.77;25.97;;;10.10;99.90;;;;;;5074200;28;20330;-62
2021/05/02 04:46:01;;;;;;;28.90;24.90;;;10.10;99.90;;;;;;5074023;28;20216;-62
2021/05/02 04:48:27;;;;;;;29.03;24.70;;;10.10;99.90;;;;;;5074235;28;20232;-63
2021/05/02 04:50:53;;;;;;;29.60;24.57;;;10.10;99.90;;;;;;5073185;28;20232;-62
2021/05/02 04:53:20;;;;;;;29.67;25.63;;;10.20;99.90;;;;;;5074171;28;20219;-63
2021/05/02 04:55:46;;;;;;;29.93;24.57;;;10.20;99.90;;;;;;5073805;28;20205;-62
2021/05/02 04:58:12;;;;;;;29.13;25.17;;;10.20;99.90;;;;;;5073988;28;20342;-62
2021/05/02 05:00:40;;;;;;;26.07;23.27;;;10.20;99.90;;;;;;5073685;28;20231;-62
2021/05/02 05:03:06;;;;;;;30.33;23.93;;;10.30;99.90;;;;;;5074285;28;20205;-62
2021/05/02 05:05:33;;;;;;;25.57;22.73;;;10.30;99.90;;;;;;5073895;28;20200;-62
2021/05/02 05:07:59;;;;;;;27.50;22.87;;;10.30;99.90;;;;;;5073856;28;20224;-63
2021/05/02 05:10:25;;;;;;;29.33;23.30;;;10.40;99.90;;;;;;5074988;28;20233;-63
2021/05/02 05:12:51;;;;;;;27.37;23.63;;;10.40;99.90;;;;;;5074245;28;20212;-62
2021/05/02 05:15:17;;;;;;;24.23;21.53;;;10.50;99.90;;;;;;5073639;28;20553;-62
2021/05/02 05:17:44;;;;;;;26.90;22.13;;;10.60;99.90;;;;;;5073419;28;20204;-62
2021/05/02 05:20:11;;;;;;;26.37;23.50;;;10.70;99.90;;;;;;5073303;28;20233;-62
2021/05/02 05:22:38;;;;;;;26.10;21.43;;;10.80;99.90;;;;;;5073504;28;20209;-63
2021/05/02 05:25:05;;;;;;;24.57;21.50;;;11.00;99.90;;;;;;5073326;28;20650;-63
2021/05/02 05:27:31;;;;;;;26.13;21.10;;;11.10;99.90;;;;;;5073301;28;20205;-63
2021/05/02 05:29:57;;;;;;;24.13;20.83;;;11.30;99.90;;;;;;5073546;28;20228;-63
2021/05/02 05:32:23;;;;;;;28.03;22.30;;;11.40;99.90;;;;;;5072777;28;20746;-63
2021/05/02 05:34:50;;;;;;;23.47;20.60;;;11.50;99.90;;;;;;5073289;28;20251;-63
2021/05/02 05:37:17;;;;;;;23.03;20.53;;;11.60;99.90;;;;;;5072929;28;20209;-63
2021/05/02 05:39:43;;;;;;;21.47;19.17;;;11.60;99.90;;;;;;5073310;28;20229;-63
2021/05/02 05:42:09;;;;;;;21.83;19.63;;;11.70;99.90;;;;;;5073151;28;20261;-63
2021/05/02 05:44:36;;;;;;;23.07;20.67;;;11.80;99.90;;;;;;5072721;28;20208;-63
2021/05/02 05:47:02;;;;;;;22.33;19.97;;;11.80;99.90;;;;;;5073724;28;20209;-63
2021/05/02 05:49:28;;;;;;;23.87;20.10;;;11.80;99.90;;;;;;5072950;28;20229;-63
2021/05/02 05:51:55;;;;;;;20.27;18.17;;;11.90;99.90;;;;;;5072947;28;20205;-63
2021/05/02 05:54:22;;;;;;;20.30;18.10;;;12.10;99.90;;;;;;5072714;28;20688;-63
2021/05/02 05:56:49;;;;;;;25.03;21.00;;;12.30;99.90;;;;;;5072861;28;20208;-63
2021/05/02 05:59:15;;;;;;;22.30;19.93;;;12.60;99.90;;;;;;5071935;28;20213;-63
2021/05/02 06:01:42;;;;;;;20.20;17.07;;;12.90;99.90;;;;;;5072465;28;20209;-63
2021/05/02 06:04:08;;;;;;;18.93;16.83;;;13.30;99.90;;;;;;5072871;28;20680;-62
2021/05/02 06:06:36;;;;;;;18.20;16.40;;;13.60;99.90;;;;;;5072756;28;20208;-62
2021/05/02 06:09:05;;;;;;;18.50;16.60;;;13.90;99.90;;;;;;5072734;28;20235;-62
2021/05/02 06:11:31;;;;;;;17.63;15.70;;;14.10;99.90;;;;;;5072191;28;20278;-62
2021/05/02 06:13:58;;;;;;;18.93;16.97;;;14.20;99.90;;;;;;5072082;28;20208;-62
2021/05/02 06:16:25;;;;;;;18.53;16.47;;;14.20;99.90;;;;;;5072458;28;20703;-62
2021/05/02 06:18:52;;;;;;;23.17;18.87;;;14.10;99.90;;;;;;5072353;28;20211;-62
2021/05/02 06:21:19;;;;;;;20.37;16.60;;;14.10;99.90;;;;;;5071891;28;20232;-62
2021/05/02 06:23:45;;;;;;;17.97;16.17;;;14.20;99.90;;;;;;5072357;28;20212;-62
2021/05/02 06:26:13;;;;;;;19.57;17.27;;;14.30;99.90;;;;;;5072852;28;20247;-63
2021/05/02 06:28:40;;;;;;;19.30;17.30;;;14.30;99.90;;;;;;5073009;28;20232;-62
2021/05/02 06:31:06;;;;;;;18.67;16.77;;;14.50;99.90;;;;;;5073723;28;20575;-62
2021/05/02 06:33:32;;;;;;;17.40;15.57;;;14.70;99.90;;;;;;5073023;28;20205;-62
2021/05/02 06:35:59;;;;;;;18.80;16.00;;;15.00;99.80;;;;;;5072595;28;20258;-62
2021/05/02 06:38:25;;;;;;;18.07;16.17;;;15.30;98.60;;;;;;5072225;28;20465;-63
2021/05/02 06:40:51;;;;;;;19.17;15.43;;;15.60;98.10;;;;;;5071878;28;20225;-63
2021/05/02 06:43:18;;;;;;;16.53;14.87;;;15.80;97.70;;;;;;5071787;28;20267;-62
2021/05/02 06:45:44;;;;;;;17.13;14.93;;;16.00;97.30;;;;;;5071696;28;20201;-62
2021/05/02 06:48:11;;;;;;;15.80;14.13;;;16.10;97.30;;;;;;5071526;28;20217;-62
2021/05/02 06:50:37;;;;;;;16.17;14.47;;;16.20;96.90;;;;;;5071407;28;20229;-62
2021/05/02 06:53:03;;;;;;;18.47;14.63;;;16.10;95.30;;;;;;5071513;28;20209;-62
2021/05/02 06:55:29;;;;;;;18.57;14.60;;;16.00;95.60;;;;;;5071394;28;20590;-62
2021/05/02 06:57:58;;;;;;;16.60;15.00;;;15.90;95.20;;;;;;5071649;28;20211;-62
2021/05/02 07:00:26;;;;;;;18.70;15.97;;;15.80;95.50;;;;;;5072270;28;20220;-62
2021/05/02 07:02:52;;;;;;;17.47;15.60;;;15.70;95.80;;;;;;5071624;28;20205;-62
2021/05/02 07:05:18;;;;;;;16.73;14.90;;;15.60;95.70;;;;;;5071562;28;20204;-63
2021/05/02 07:07:44;;;;;;;16.97;15.17;;;15.40;95.10;;;;;;5071227;28;20225;-62
2021/05/02 07:10:11;;;;;;;17.27;15.30;;;15.50;95.20;;;;;;5071481;28;20225;-62
2021/05/02 07:12:37;;;;;;;17.93;16.03;;;15.50;95.00;;;;;;5071450;28;20584;-62
2021/05/02 07:15:04;;;;;;;17.53;15.83;;;15.50;95.40;;;;;;5074899;28;20216;-62
2021/05/02 07:17:32;;;;;;;21.53;16.70;;;15.50;96.10;;;;;;5075623;28;20205;-64
2021/05/02 07:19:58;;;;;;;20.40;16.10;;;15.60;96.00;;;;;;5075049;28;20255;-62
2021/05/02 07:22:26;;;;;;;17.90;15.90;;;15.50;96.00;;;;;;5075507;28;20250;-62
2021/05/02 07:24:52;;;;;;;19.47;17.47;;;15.40;95.90;;;;;;5075569;28;20209;-63
2021/05/02 07:27:19;;;;;;;18.87;16.90;;;15.40;96.30;;;;;;5076138;28;20205;-62
2021/05/02 07:29:45;;;;;;;16.73;15.03;;;15.50;96.70;;;;;;5074878;28;20229;-62
2021/05/02 07:32:12;;;;;;;16.17;14.47;;;15.60;95.90;;;;;;5075007;28;20201;-62
2021/05/02 07:34:39;;;;;;;16.30;14.37;;;15.50;94.40;;;;;;5074690;28;20204;-62
2021/05/02 07:37:05;;;;;;;16.97;15.07;;;15.40;94.20;;;;;;5074469;28;20232;-62
2021/05/02 07:39:31;;;;;;;17.57;14.07;;;15.40;94.40;;;;;;5074706;28;20225;-63
2021/05/02 07:41:58;;;;;;;15.87;14.27;;;15.40;94.40;;;;;;5074954;28;20209;-62
2021/05/02 07:44:24;;;;;;;16.23;14.00;;;15.60;94.70;;;;;;5074851;28;20685;-62
2021/05/02 07:46:50;;;;;;;17.07;15.17;;;15.90;94.80;;;;;;5074524;28;20209;-63
2021/05/02 07:49:17;;;;;;;17.83;15.93;;;16.10;94.90;;;;;;5074413;28;20700;-63
2021/05/02 07:51:44;;;;;;;16.20;14.60;;;16.40;93.70;;;;;;5074243;28;20677;-62
2021/05/02 07:54:10;;;;;;;15.27;13.70;;;17.00;92.80;;;;;;5074294;28;20201;-62
2021/05/02 07:56:36;;;;;;;16.23;13.77;;;17.60;92.20;;;;;;5075731;28;20209;-62
2021/05/02 07:59:03;;;;;;;13.77;12.20;;;18.90;90.40;;;;;;5076033;28;20590;-63
2021/05/02 08:01:29;;;;;;;14.27;12.10;;;20.60;83.50;;;;;;5076249;28;20205;-63
2021/05/02 08:03:55;;;;;;;12.70;11.40;;;21.60;77.50;;;;;;5074397;28;20475;-63
2021/05/02 08:06:22;;;;;;;12.68;11.38;;;22.00;74.80;;;;;;5074224;28;20606;-63
2021/05/02 08:08:49;;;;;;;12.25;10.85;;;22.00;74.10;;;;;;5073943;28;20730;-59
2021/05/02 08:11:16;;;;;;;12.00;10.80;;;22.20;73.60;;;;;;5073736;28;20751;-59
2021/05/02 08:13:42;;;;;;;14.95;11.70;;;22.00;72.00;;;;;;5073711;28;20204;-59
2021/05/02 08:16:08;;;;;;;11.90;10.70;;;21.20;73.10;;;;;;5073678;28;20205;-59
2021/05/02 08:18:35;;;;;;;12.68;11.35;;;20.50;73.00;;;;;;5073722;28;20258;-59
2021/05/02 08:21:03;;;;;;;12.32;10.57;;;19.90;73.20;;;;;;5073643;28;20237;-59
2021/05/02 08:23:29;;;;;;;11.93;10.57;;;19.60;73.10;;;;;;5073584;28;20693;-59
2021/05/02 08:25:56;;;;;;;12.02;10.82;;;19.20;74.40;;;;;;5073479;28;20211;-59
2021/05/02 08:28:23;;;;;;;13.32;11.98;;;18.90;75.50;;;;;;5073924;28;20225;-60
2021/05/02 08:30:49;;;;;;;12.10;10.90;;;18.90;75.90;;;;;;5074323;28;20235;-60
2021/05/02 08:33:15;;;;;;;13.70;11.43;;;19.10;76.00;;;;;;5073485;28;20219;-62
2021/05/02 08:35:42;;;;;;;10.90;9.90;;;19.30;76.80;;;;;;5073627;28;20266;-63
2021/05/02 08:38:08;;;;;;;11.50;10.30;;;19.30;69.90;;;;;;5074431;28;20292;-63
2021/05/02 08:40:34;;;;;;;11.13;10.00;;;19.20;70.60;;;;;;5074410;28;20225;-62
2021/05/02 08:43:06;;;;;;;11.68;10.45;;;19.10;72.10;;;;;;5073790;28;20212;-62
2021/05/02 08:45:35;;;;;;;11.63;10.43;;;19.20;73.00;;;;;;5073803;28;20644;-63
2021/05/02 08:48:02;;;;;;;12.87;11.57;;;19.40;72.00;;;;;;5073664;28;20217;-63
2021/05/02 08:50:28;;;;;;;11.98;10.80;;;19.60;70.20;;;;;;5073993;28;20256;-63
2021/05/02 08:52:54;;;;;;;11.75;10.55;;;19.70;68.30;;;;;;5073890;28;20665;-62
2021/05/02 08:55:20;;;;;;;11.93;10.70;;;19.30;68.50;;;;;;5073538;28;20212;-63
2021/05/02 08:57:47;;;;;;;15.00;11.13;;;19.00;68.40;;;;;;5074015;28;20216;-63
2021/05/02 09:00:14;;;;;;;12.70;11.60;;;19.00;70.30;;;;;;5074003;28;20231;-63
2021/05/02 09:02:53;;;;;;;12.57;11.38;;;19.40;70.20;;;;;;5073839;28;20204;-63
2021/05/02 09:05:19;;;;;;;12.60;11.30;;;19.60;71.70;;;;;;5073821;28;20229;-64
2021/05/02 09:07:46;;;;;;;13.37;11.03;;;19.40;70.70;;;;;;5073808;28;20205;-65
2021/05/02 09:10:14;;;;;;;11.23;10.20;;;19.20;70.10;;;;;;5074113;28;20282;-64
2021/05/02 09:12:43;;;;;;;13.07;11.33;;;18.90;69.70;;;;;;5074389;28;20234;-63
2021/05/02 09:15:17;;;;;;;12.63;11.07;;;18.90;69.30;;;;;;5073902;28;20212;-63
2021/05/02 09:17:51;;;;;;;12.23;10.50;;;18.80;70.70;;;;;;5074143;28;20286;-63
2021/05/02 09:20:42;;;;;;;12.00;10.70;;;18.90;69.40;;;;;;5093872;22;20254;-61
2021/05/02 09:23:09;;;;;;;13.63;11.07;;;19.10;68.50;;;;;;5092634;28;20207;-63
2021/05/02 09:25:50;;;;;;;12.43;11.13;;;19.20;68.10;;;;;;5092410;28;20684;-62
2021/05/02 09:28:18;;;;;;;11.50;10.37;;;19.00;69.10;;;;;;5092427;28;20227;-63
2021/05/02 09:30:44;;;;;;;13.80;10.50;;;18.90;69.70;;;;;;5092558;28;20235;-61
2021/05/02 09:33:25;;;;;;;11.40;10.30;;;18.70;70.00;;;;;;5092351;28;20630;-60
2021/05/02 09:35:52;;;;;;;12.50;10.97;;;18.50;69.80;;;;;;5091867;28;20208;-61
2021/05/02 09:38:19;;;;;;;13.23;11.77;;;18.20;69.50;;;;;;5092101;28;20206;-61
2021/05/02 09:40:51;;;;;;;11.63;10.43;;;18.10;69.80;;;;;;5092231;28;20224;-63
2021/05/02 09:43:35;;;;;;;12.63;11.37;;;18.20;68.00;;;;;;5092496;28;20233;-62
2021/05/02 09:46:26;;;;;;;13.33;11.33;;;18.00;68.40;;;;;;5092129;28;20299;-61
2021/05/02 09:48:55;;;;;;;13.63;11.67;;;17.90;69.70;;;;;;5092281;28;20234;-63
2021/05/02 09:51:23;;;;;;;12.27;11.07;;;17.80;71.20;;;;;;5092402;28;20231;-63
2021/05/02 09:54:07;;;;;;;12.67;10.60;;;17.60;71.20;;;;;;5092064;28;20208;-61
2021/05/02 09:56:41;;;;;;;14.80;12.93;;;17.50;70.40;;;;;;5092645;28;20208;-61
2021/05/02 09:59:20;;;;;;;13.00;11.00;;;17.60;71.70;;;;;;5092122;28;20195;-61
2021/05/02 10:02:16;;;;;;;13.23;11.93;;;17.90;70.00;;;;;;5091911;28;20319;-62
2021/05/02 10:04:46;;;;;;;13.57;12.20;;;18.10;68.10;;;;;;5091706;28;20204;-61
2021/05/02 10:07:13;;;;;;;12.07;10.87;;;18.00;68.80;;;;;;5091722;28;20516;-62
2021/05/02 10:09:39;;;;;;;15.10;11.77;;;17.70;69.00;;;;;;5091497;28;20231;-63
2021/05/02 10:12:06;;;;;;;12.67;11.33;;;17.40;70.70;;;;;;5092008;28;20208;-61
2021/05/02 10:14:32;;;;;;;13.33;11.93;;;17.30;72.40;;;;;;5091690;28;20200;-62
2021/05/02 10:16:59;;;;;;;13.13;11.53;;;17.30;71.30;;;;;;5091606;28;20207;-63
2021/05/02 10:19:25;;;;;;;13.90;12.17;;;17.50;70.20;;;;;;5091196;28;20200;-61
2021/05/02 10:21:52;;;;;;;12.70;11.47;;;17.90;70.10;;;;;;5091387;28;20216;-61
2021/05/02 10:24:18;;;;;;;13.00;11.70;;;18.30;67.70;;;;;;5091755;28;20204;-63
2021/05/02 10:26:44;;;;;;;12.97;11.77;;;18.50;68.00;;;;;;5091241;28;20575;-60
2021/05/02 10:29:10;;;;;;;14.50;12.50;;;18.50;68.80;;;;;;5091180;28;20584;-61
2021/05/02 10:31:41;;;;;;;14.70;13.20;;;18.40;70.20;;;;;;5091136;28;20266;-60
2021/05/02 10:34:29;;;;;;;16.87;13.67;;;18.30;72.30;;;;;;5091172;28;20676;-60
2021/05/02 10:37:36;;;;;;;13.57;12.03;;;18.10;70.60;;;;;;5091577;28;20204;-62
2021/05/02 10:40:10;;;;;;;18.20;15.00;;;17.90;69.30;;;;;;5091207;28;20306;-61
2021/05/02 10:42:47;;;;;;;17.53;15.13;;;17.60;70.60;;;;;;5091068;28;20200;-61
2021/05/02 10:45:36;;;;;;;16.40;14.67;;;17.50;71.40;;;;;;5090969;28;20570;-59
2021/05/02 10:48:05;;;;;;;18.70;16.07;;;17.40;70.70;;;;;;5069435;28;20205;-62
2021/05/02 10:50:34;;;;;;;15.43;13.93;;;17.40;70.60;;;;;;5071019;28;20707;-63
2021/05/02 10:53:03;;;;;;;15.77;13.97;;;17.70;70.80;;;;;;5070903;28;20292;-59
2021/05/02 10:55:51;;;;;;;15.03;13.13;;;18.00;67.80;;;;;;5070773;28;20219;-61
2021/05/02 10:58:22;;;;;;;14.20;12.70;;;18.30;65.50;;;;;;5070693;28;20669;-60
2021/05/02 11:00:50;;;;;;;13.33;11.93;;;18.80;65.30;;;;;;5070763;28;20228;-61
2021/05/02 11:03:52;;;;;;;14.27;12.77;;;19.30;63.40;;;;;;5071012;28;20260;-62
2021/05/02 11:06:58;;;;;;;14.53;13.03;;;19.60;61.50;;;;;;5071067;28;20615;-62
2021/05/02 11:09:50;;;;;;;12.97;11.63;;;19.60;61.10;;;;;;5070481;28;20596;-63
2021/05/02 11:12:30;;;;;;;18.63;16.63;;;19.60;61.20;;;;;;5071083;28;20635;-62
2021/05/02 11:14:56;;;;;;;13.65;12.25;;;19.80;61.20;;;;;;5071336;28;20216;-62
2021/05/02 11:17:31;;;;;;;12.70;10.17;;;19.80;58.40;;;;;;5071449;28;20208;-61
2021/05/02 11:20:00;;;;;;;12.70;11.40;;;19.60;58.00;;;;;;5070697;28;20522;-64
2021/05/02 11:22:27;;;;;;;14.75;13.00;;;19.30;59.20;;;;;;5070834;28;20243;-61
2021/05/02 11:25:01;;;;;;;11.90;10.68;;;19.30;59.60;;;;;;5070477;28;20692;-62
2021/05/02 11:30:36;;;;;;;10.75;9.75;;;19.90;58.60;;;;;;5071536;28;20259;-59
2021/05/02 11:33:19;;;;;;;14.38;10.23;;;20.20;57.60;;;;;;5070474;28;20200;-61
2021/05/02 11:35:53;;;;;;;10.63;9.73;;;20.10;58.10;;;;;;5070255;28;20669;-61
2021/05/02 11:38:21;;;;;;;14.05;11.35;;;19.80;59.30;;;;;;5070399;28;20204;-60
2021/05/02 11:40:57;;;;;;;12.10;10.80;;;18.80;60.30;;;;;;5070576;28;20254;-61
2021/05/02 11:43:27;;;;;;;12.00;10.77;;;17.60;63.50;;;;;;5069567;28;20236;-62
2021/05/02 11:45:55;;;;;;;13.73;11.13;;;16.80;65.50;;;;;;5069897;28;20239;-62
2021/05/02 11:48:23;;;;;;;13.03;11.57;;;16.10;67.60;;;;;;5070262;28;20221;-62
2021/05/02 11:50:52;;;;;;;12.50;11.30;;;15.60;71.30;;;;;;5070077;28;20286;-61
2021/05/02 11:53:32;;;;;;;13.37;11.90;;;15.30;73.90;;;;;;5070037;28;20274;-62
2021/05/02 11:55:59;;;;;;;14.20;12.70;;;15.20;74.00;;;;;;5070133;28;20652;-63
2021/05/02 11:58:25;;;;;;;14.10;12.43;;;15.10;74.00;;;;;;5070249;28;20208;-62
2021/05/02 12:00:52;;;;;;;16.20;13.17;;;15.30;74.90;;;;;;5072965;28;20221;-63
2021/05/02 12:03:33;;;;;;;12.70;10.77;;;15.50;78.80;;;;;;5073963;28;20260;-62
2021/05/02 12:05:59;;;;;;;9.10;8.20;;;15.70;77.60;;;;;;5073877;28;20216;-62
2021/05/02 12:08:27;;;;;;;8.37;7.30;;;16.20;77.70;;;;;;5073779;28;20220;-61
2021/05/02 12:10:55;;;;;;;4.53;4.13;;;16.60;81.80;;;;;;5073654;28;20229;-60
2021/05/02 12:13:33;;;;;;;3.90;3.50;;;17.00;71.40;;;;;;5073754;28;20262;-60
2021/05/02 12:16:10;;;;;;;4.60;4.20;;;16.80;69.10;;;;;;5074287;28;20286;-60
2021/05/02 12:18:44;;;;;;;6.53;5.17;;;16.40;68.00;;;;;;5074691;28;20191;-60
2021/05/02 12:21:13;;;;;;;6.63;6.03;;;16.00;67.30;;;;;;5074335;28;20232;-60
2021/05/02 12:23:39;;;;;;;7.77;6.40;;;15.90;67.50;;;;;;5074132;28;20232;-59
2021/05/02 12:26:09;;;;;;;6.50;5.90;;;15.80;67.40;;;;;;5073774;28;20200;-60
2021/05/02 12:28:37;;;;;;;7.57;5.43;;;15.70;68.70;;;;;;5073570;28;20225;-60
2021/05/02 12:31:04;;;;;;;4.30;3.90;;;15.60;69.40;;;;;;5074191;28;20229;-59
2021/05/02 12:33:31;;;;;;;5.20;4.70;;;15.60;67.70;;;;;;5074142;28;20205;-59
2021/05/02 12:35:58;;;;;;;5.67;5.17;;;15.50;69.20;;;;;;5074001;28;20620;-60
2021/05/02 12:38:25;;;;;;;6.10;5.57;;;15.60;70.00;;;;;;5073760;28;20209;-60
2021/05/02 12:40:52;;;;;;;6.13;5.53;;;15.60;70.70;;;;;;5073720;28;20232;-60
2021/05/02 12:43:25;;;;;;;7.37;6.67;;;15.70;70.40;;;;;;5073410;28;20205;-60